Terminal Aerodrome Forecast
Issued by NWS

Home | Current Version | Previous Version | Text Only | Print | Product List | Glossary On
Versions: 1 2 3 4 5 6 7 8 9 10 11 12 13 14 15 16 17 18 19 20
000
FTAK31 PAJN 041730
TAFAKT
TAF
PAKT 041730Z 0418/0518 20005KT 6SM -SHSN BR SCT025 OVC035
      TEMPO 0418/0422 VRB03KT 2SM -SHSN BR BKN015 OVC025
     FM050300 32006KT P6SM VCSH SCT035 BKN060
     FM051000 30005KT P6SM SKC
      AMD LTD TO CLD VIS AND WIND 0506/0515=

USA.gov is the U.S. government's official web portal to all federal, state and local government web resources and services.